Time;durP1;ratioP1;P1;durP2;ratioP2;P2;SDS_P1;SDS_P2;PMS_P1;PMS_P2;Temp;Humidity;BMP_temperature;BMP_pressure;BME280_temperature;BME280_humidity;BME280_pressure;Samples;Min_cycle;Max_cycle;Signal;HPM_P1;HPM_P2
2022/09/09 00:00:12;;;;;;;2.47;1.00;;;;;;;;;;4772806;30;20069;-76
2022/09/09 00:02:38;;;;;;;4.38;1.13;;;;;;;;;;4773213;30;20051;-75
2022/09/09 00:05:10;;;;;;;3.85;0.90;;;;;;;;;;4772793;30;20194;-76
2022/09/09 00:07:36;;;;;;;3.35;1.00;;;;;;;;;;4772440;30;20119;-76
2022/09/09 00:10:09;;;;;;;1.58;1.02;;;;;;;;;;4772291;30;20055;-76
2022/09/09 00:12:50;;;;;;;7.43;1.02;;;;;;;;;;4772606;30;20174;-76
2022/09/09 00:15:21;;;;;;;2.40;1.30;;;;;;;;;;4772547;30;20051;-75
2022/09/09 00:18:09;;;;;;;3.55;1.08;;;;;;;;;;4772585;30;20050;-77
2022/09/09 00:20:41;;;;;;;1.63;0.88;;;;;;;;;;4772095;30;20054;-77
2022/09/09 00:23:13;;;;;;;4.10;1.20;;;;;;;;;;4772150;30;20047;-77
2022/09/09 00:25:45;;;;;;;3.17;0.90;;;;;;;;;;4772393;30;20077;-76
2022/09/09 00:28:18;;;;;;;3.28;1.17;;;;;;;;;;4772326;30;20040;-76
2022/09/09 00:30:48;;;;;;;4.88;1.17;;;;;;;;;;4772319;30;20059;-76
2022/09/09 00:33:15;;;;;;;2.47;0.90;;;;;;;;;;4773380;30;20063;-75
2022/09/09 00:36:00;;;;;;;3.55;1.02;;;;;;;;;;4772202;30;20046;-76
2022/09/09 00:38:33;;;;;;;2.75;1.00;;;;;;;;;;4772001;30;20043;-76
2022/09/09 00:41:03;;;;;;;2.50;1.08;;;;;;;;;;4772381;30;20126;-76
2022/09/09 00:43:34;;;;;;;1.45;0.88;;;;;;;;;;4772042;30;20060;-77
2022/09/09 00:46:19;;;;;;;2.80;1.08;;;;;;;;;;4772092;30;20059;-76
2022/09/09 00:48:55;;;;;;;3.33;1.00;;;;;;;;;;4772518;30;20047;-77
2022/09/09 00:51:37;;;;;;;4.75;1.10;;;;;;;;;;4772107;30;20086;-76
2022/09/09 00:54:12;;;;;;;3.05;1.13;;;;;;;;;;4771798;30;20531;-76
2022/09/09 00:56:42;;;;;;;2.17;1.10;;;;;;;;;;4771936;30;20074;-76
2022/09/09 00:59:11;;;;;;;1.27;0.75;;;;;;;;;;4771931;30;20500;-76
2022/09/09 01:01:39;;;;;;;1.17;0.90;;;;;;;;;;4772179;30;20135;-76
2022/09/09 01:04:15;;;;;;;2.88;0.90;;;;;;;;;;4771987;30;20043;-76
2022/09/09 01:06:42;;;;;;;2.45;0.90;;;;;;;;;;4771756;30;20060;-76
2022/09/09 01:09:15;;;;;;;1.85;1.13;;;;;;;;;;4772245;30;20036;-75
2022/09/09 01:12:00;;;;;;;5.28;1.35;;;;;;;;;;4772112;30;20116;-76
2022/09/09 01:14:35;;;;;;;4.60;1.10;;;;;;;;;;4771648;30;20074;-77
2022/09/09 01:17:05;;;;;;;3.50;0.90;;;;;;;;;;4771457;30;20512;-76
2022/09/09 01:19:48;;;;;;;1.48;0.98;;;;;;;;;;4771652;30;20090;-75
2022/09/09 01:22:33;;;;;;;1.67;1.00;;;;;;;;;;4772123;30;20051;-76
2022/09/09 01:25:17;;;;;;;5.40;1.30;;;;;;;;;;4771598;30;20051;-76
2022/09/09 01:27:44;;;;;;;1.88;0.95;;;;;;;;;;4771667;30;20043;-76
2022/09/09 01:30:14;;;;;;;5.72;1.55;;;;;;;;;;4771549;30;20051;-76
2022/09/09 01:32:45;;;;;;;2.95;1.02;;;;;;;;;;4771660;30;20508;-76
2022/09/09 01:35:15;;;;;;;2.28;1.20;;;;;;;;;;4771500;30;20134;-75
2022/09/09 01:37:41;;;;;;;1.83;0.88;;;;;;;;;;4772045;30;20485;-76
2022/09/09 01:40:08;;;;;;;3.17;0.90;;;;;;;;;;4771557;30;20044;-76
2022/09/09 01:42:35;;;;;;;3.03;1.13;;;;;;;;;;4775219;30;20126;-76
2022/09/09 01:45:01;;;;;;;1.50;0.88;;;;;;;;;;4775046;30;20105;-76
2022/09/09 01:47:27;;;;;;;2.78;1.30;;;;;;;;;;4774755;30;20071;-76
2022/09/09 01:56:03;;;;;;;4.75;1.05;;;;;;;;;;4774130;30;20042;-76
2022/09/09 01:58:48;;;;;;;1.90;1.23;;;;;;;;;;4774618;30;20058;-75
2022/09/09 02:01:20;;;;;;;2.13;1.10;;;;;;;;;;4774640;30;20524;-76
2022/09/09 02:03:52;;;;;;;1.80;1.10;;;;;;;;;;4774490;30;20054;-75
2022/09/09 02:06:18;;;;;;;3.33;1.05;;;;;;;;;;4774590;30;20051;-76
2022/09/09 02:08:51;;;;;;;3.78;1.40;;;;;;;;;;4774735;30;20058;-76
2022/09/09 02:11:18;;;;;;;2.80;1.20;;;;;;;;;;4773805;30;20411;-76
2022/09/09 02:13:45;;;;;;;4.55;1.05;;;;;;;;;;4774312;30;20130;-76
2022/09/09 02:16:11;;;;;;;2.30;1.27;;;;;;;;;;4773040;30;20040;-76
2022/09/09 02:18:45;;;;;;;4.40;1.20;;;;;;;;;;4774251;30;20492;-76
2022/09/09 02:21:13;;;;;;;3.10;1.20;;;;;;;;;;4773865;30;20182;-76
2022/09/09 02:23:41;;;;;;;4.47;1.48;;;;;;;;;;4774432;30;20040;-75
2022/09/09 02:26:09;;;;;;;3.42;1.25;;;;;;;;;;4773421;30;20444;-76
2022/09/09 02:28:37;;;;;;;3.80;1.13;;;;;;;;;;4774033;30;20040;-76
2022/09/09 02:31:03;;;;;;;3.13;1.10;;;;;;;;;;4774041;30;20051;-76
2022/09/09 02:33:34;;;;;;;2.80;0.98;;;;;;;;;;4774526;30;20161;-76
2022/09/09 02:36:03;;;;;;;;;;;;;;;;;;4774092;30;20404;-76
2022/09/09 02:38:30;;;;;;;2.97;1.10;;;;;;;;;;4773504;30;20400;-76
2022/09/09 02:40:58;;;;;;;2.40;1.10;;;;;;;;;;4773868;30;20047;-76
2022/09/09 02:43:24;;;;;;;2.38;0.98;;;;;;;;;;4773647;30;20086;-76
2022/09/09 02:46:00;;;;;;;6.15;1.60;;;;;;;;;;4773642;30;20059;-76
2022/09/09 02:48:46;;;;;;;4.78;1.00;;;;;;;;;;4773862;30;20050;-76
2022/09/09 02:51:18;;;;;;;5.07;1.17;;;;;;;;;;4773012;30;20478;-76
2022/09/09 02:53:47;;;;;;;6.80;0.93;;;;;;;;;;4772642;30;20063;-76
2022/09/09 02:56:16;;;;;;;2.30;1.00;;;;;;;;;;4774149;30;20514;-76
2022/09/09 02:58:43;;;;;;;5.25;1.02;;;;;;;;;;4773324;30;20127;-76
2022/09/09 03:01:09;;;;;;;3.50;1.30;;;;;;;;;;4773839;30;20044;-76
2022/09/09 03:03:36;;;;;;;3.97;1.25;;;;;;;;;;4773868;30;20036;-74
2022/09/09 03:06:02;;;;;;;6.25;1.20;;;;;;;;;;4773224;30;20104;-76
2022/09/09 03:08:28;;;;;;;2.65;1.20;;;;;;;;;;4773214;30;20135;-76
2022/09/09 03:10:55;;;;;;;2.53;1.20;;;;;;;;;;4773002;30;20459;-76
2022/09/09 03:13:21;;;;;;;2.13;1.05;;;;;;;;;;4773905;30;20131;-76
2022/09/09 03:15:48;;;;;;;2.95;1.17;;;;;;;;;;4773289;30;20051;-76
2022/09/09 03:18:14;;;;;;;2.85;1.20;;;;;;;;;;4773468;30;20051;-76
2022/09/09 03:20:41;;;;;;;2.00;1.10;;;;;;;;;;4772910;30;20138;-76
2022/09/09 03:23:08;;;;;;;2.80;1.05;;;;;;;;;;4773590;30;20102;-76
2022/09/09 03:25:35;;;;;;;4.13;1.13;;;;;;;;;;4773196;30;20056;-76
2022/09/09 03:28:02;;;;;;;4.55;1.15;;;;;;;;;;4773101;30;20097;-76
2022/09/09 03:30:28;;;;;;;3.55;1.20;;;;;;;;;;4772712;30;20043;-76
2022/09/09 03:32:57;;;;;;;7.72;1.63;;;;;;;;;;4772765;30;20082;-76
2022/09/09 03:35:23;;;;;;;4.03;1.20;;;;;;;;;;4773051;30;20047;-76
2022/09/09 03:37:49;;;;;;;3.92;1.10;;;;;;;;;;4772797;30;20088;-76
2022/09/09 03:40:15;;;;;;;4.35;1.30;;;;;;;;;;4772887;30;20058;-76
2022/09/09 03:42:42;;;;;;;3.33;1.30;;;;;;;;;;4772774;30;20047;-76
2022/09/09 03:45:10;;;;;;;4.57;1.17;;;;;;;;;;4772615;30;20060;-76
2022/09/09 03:47:36;;;;;;;7.00;1.65;;;;;;;;;;4772471;30;20047;-76
2022/09/09 03:50:04;;;;;;;1.48;0.80;;;;;;;;;;4772658;30;20059;-76
2022/09/09 03:52:30;;;;;;;3.90;1.13;;;;;;;;;;4772544;30;20055;-75
2022/09/09 03:54:56;;;;;;;3.50;1.20;;;;;;;;;;4772574;30;20073;-76
2022/09/09 03:57:22;;;;;;;5.45;1.50;;;;;;;;;;4771926;30;20100;-75
2022/09/09 03:59:49;;;;;;;3.22;1.30;;;;;;;;;;4772253;30;20096;-74
2022/09/09 04:02:15;;;;;;;3.03;1.33;;;;;;;;;;4772324;30;20059;-75
2022/09/09 04:04:41;;;;;;;6.25;1.20;;;;;;;;;;4771282;30;20058;-75
2022/09/09 04:07:07;;;;;;;2.30;1.15;;;;;;;;;;4772298;30;20044;-76
2022/09/09 04:09:34;;;;;;;6.05;1.30;;;;;;;;;;4772591;30;20229;-76
2022/09/09 04:12:00;;;;;;;8.30;1.55;;;;;;;;;;4772658;30;20091;-76
2022/09/09 04:14:28;;;;;;;2.55;1.20;;;;;;;;;;4772643;30;20047;-76
2022/09/09 04:16:57;;;;;;;6.07;1.10;;;;;;;;;;4771926;30;20058;-76
2022/09/09 04:19:23;;;;;;;2.92;1.48;;;;;;;;;;4772139;30;20051;-76
2022/09/09 04:21:50;;;;;;;5.65;1.45;;;;;;;;;;4772327;30;20079;-76
2022/09/09 04:24:17;;;;;;;3.75;1.08;;;;;;;;;;4772099;30;20071;-76
2022/09/09 04:26:43;;;;;;;6.75;1.50;;;;;;;;;;4772036;30;20044;-76
2022/09/09 04:29:09;;;;;;;3.20;1.30;;;;;;;;;;4771998;30;20052;-76
2022/09/09 04:31:35;;;;;;;5.05;1.35;;;;;;;;;;4772350;30;20496;-76
2022/09/09 04:34:04;;;;;;;4.72;1.25;;;;;;;;;;4772222;30;20048;-76
2022/09/09 04:36:38;;;;;;;4.20;1.40;;;;;;;;;;4771897;30;20043;-75
2022/09/09 04:39:10;;;;;;;6.45;1.23;;;;;;;;;;4770643;30;20460;-76
2022/09/09 04:41:37;;;;;;;5.78;1.38;;;;;;;;;;4771078;30;20082;-76
2022/09/09 04:44:03;;;;;;;4.20;1.17;;;;;;;;;;4771730;30;20206;-76
2022/09/09 04:46:29;;;;;;;5.75;1.10;;;;;;;;;;4772538;30;20044;-76
2022/09/09 04:48:56;;;;;;;5.40;1.30;;;;;;;;;;4769934;30;20048;-76
2022/09/09 04:51:22;;;;;;;3.85;1.25;;;;;;;;;;4770043;30;20044;-76
2022/09/09 04:53:49;;;;;;;7.53;1.40;;;;;;;;;;4769859;30;20156;-76
2022/09/09 04:56:16;;;;;;;3.70;1.20;;;;;;;;;;4770069;30;20059;-76
2022/09/09 04:58:45;;;;;;;3.25;1.10;;;;;;;;;;4769359;30;20132;-76
2022/09/09 05:01:17;;;;;;;3.45;1.17;;;;;;;;;;4769384;30;20213;-76
2022/09/09 05:03:45;;;;;;;2.03;1.10;;;;;;;;;;4771663;30;20146;-76
2022/09/09 05:06:12;;;;;;;3.67;1.20;;;;;;;;;;4771703;30;20047;-76
2022/09/09 05:08:38;;;;;;;2.38;1.00;;;;;;;;;;4771825;30;20070;-76
2022/09/09 05:11:13;;;;;;;3.10;1.48;;;;;;;;;;4771378;30;20051;-76
2022/09/09 05:13:40;;;;;;;2.85;1.20;;;;;;;;;;4770832;30;20078;-75
2022/09/09 05:16:06;;;;;;;2.40;1.10;;;;;;;;;;4769427;30;20122;-76
2022/09/09 05:18:32;;;;;;;2.90;1.20;;;;;;;;;;4770829;30;20512;-75
2022/09/09 05:21:01;;;;;;;3.10;1.20;;;;;;;;;;4771189;30;20051;-75
2022/09/09 05:23:27;;;;;;;7.38;1.52;;;;;;;;;;4771042;30;20517;-76
2022/09/09 05:25:57;;;;;;;4.60;1.50;;;;;;;;;;4769733;30;20067;-75
2022/09/09 05:28:25;;;;;;;4.03;1.27;;;;;;;;;;4768535;30;20079;-75
2022/09/09 05:31:04;;;;;;;4.20;1.30;;;;;;;;;;4771241;30;20048;-75
2022/09/09 05:33:31;;;;;;;5.63;1.75;;;;;;;;;;4770858;30;20059;-76
2022/09/09 05:36:01;;;;;;;4.78;1.20;;;;;;;;;;4771865;30;20130;-76
2022/09/09 05:38:27;;;;;;;3.65;2.20;;;;;;;;;;4770949;30;20526;-76
2022/09/09 05:40:54;;;;;;;4.75;1.38;;;;;;;;;;4770661;30;20078;-77
2022/09/09 05:43:20;;;;;;;2.50;0.98;;;;;;;;;;4771033;30;20051;-76
2022/09/09 05:45:47;;;;;;;7.07;1.13;;;;;;;;;;4770274;30;20518;-76
2022/09/09 05:48:15;;;;;;;2.08;0.90;;;;;;;;;;4770786;30;20102;-75
2022/09/09 05:50:42;;;;;;;4.00;1.08;;;;;;;;;;4770254;30;20064;-75
2022/09/09 05:53:08;;;;;;;4.10;1.10;;;;;;;;;;4770040;30;20056;-74
2022/09/09 05:55:34;;;;;;;1.85;0.80;;;;;;;;;;4770685;30;20048;-74
2022/09/09 05:58:01;;;;;;;2.95;0.82;;;;;;;;;;4770808;30;20047;-73
2022/09/09 06:00:27;;;;;;;3.33;1.20;;;;;;;;;;4770491;30;20051;-74
2022/09/09 06:02:53;;;;;;;2.75;1.02;;;;;;;;;;4771721;30;20093;-74
2022/09/09 06:05:20;;;;;;;3.17;1.10;;;;;;;;;;4771447;30;20047;-73
2022/09/09 06:07:46;;;;;;;11.23;9.10;;;;;;;;;;4771178;30;20569;-74
2022/09/09 06:10:16;;;;;;;5.32;2.05;;;;;;;;;;4770870;30;20117;-74
2022/09/09 06:12:42;;;;;;;3.92;1.67;;;;;;;;;;4771427;30;20055;-74
2022/09/09 06:15:08;;;;;;;3.03;1.05;;;;;;;;;;4771164;30;20039;-76
2022/09/09 06:17:35;;;;;;;1.70;0.75;;;;;;;;;;4770541;30;20048;-75
2022/09/09 06:20:01;;;;;;;0.82;0.65;;;;;;;;;;4770012;30;20078;-76
2022/09/09 06:22:27;;;;;;;2.72;1.08;;;;;;;;;;4770479;30;20551;-75
2022/09/09 06:24:53;;;;;;;3.33;1.05;;;;;;;;;;4770921;30;20044;-76
2022/09/09 06:27:19;;;;;;;2.05;0.85;;;;;;;;;;4772398;30;20050;-76
2022/09/09 06:29:45;;;;;;;1.10;0.70;;;;;;;;;;4774254;30;20051;-76
2022/09/09 06:32:11;;;;;;;5.55;0.70;;;;;;;;;;4774588;30;20087;-76
2022/09/09 06:34:37;;;;;;;1.92;0.90;;;;;;;;;;4773956;30;20051;-76
2022/09/09 06:37:06;;;;;;;1.95;0.70;;;;;;;;;;4773945;30;20047;-76
2022/09/09 06:39:32;;;;;;;1.83;0.60;;;;;;;;;;4774122;30;20182;-75
2022/09/09 06:41:58;;;;;;;3.22;0.90;;;;;;;;;;4774691;30;20054;-76
2022/09/09 06:44:26;;;;;;;2.08;0.88;;;;;;;;;;4773643;30;20063;-76
2022/09/09 06:46:52;;;;;;;4.40;0.93;;;;;;;;;;4773721;30;20048;-76
2022/09/09 06:49:19;;;;;;;3.17;0.65;;;;;;;;;;4773706;30;20091;-76
2022/09/09 06:51:46;;;;;;;1.60;0.70;;;;;;;;;;4773568;30;20101;-75
2022/09/09 06:54:13;;;;;;;1.55;0.75;;;;;;;;;;4773436;30;20051;-75
2022/09/09 06:56:43;;;;;;;2.08;1.02;;;;;;;;;;4774178;30;20090;-75
2022/09/09 06:59:10;;;;;;;4.40;0.80;;;;;;;;;;4773049;30;20044;-75
2022/09/09 07:01:37;;;;;;;0.85;0.80;;;;;;;;;;4774087;30;20069;-75
2022/09/09 07:04:07;;;;;;;1.30;0.95;;;;;;;;;;4773616;30;20043;-75
2022/09/09 07:06:34;;;;;;;0.98;0.80;;;;;;;;;;4773832;30;20040;-75
2022/09/09 07:09:04;;;;;;;1.23;0.85;;;;;;;;;;4773614;30;20056;-75
2022/09/09 07:11:33;;;;;;;4.07;0.90;;;;;;;;;;4773323;30;20051;-75
2022/09/09 07:14:00;;;;;;;3.08;0.90;;;;;;;;;;4773081;30;20055;-75
2022/09/09 07:16:27;;;;;;;2.60;1.08;;;;;;;;;;4773432;30;20508;-75
2022/09/09 07:18:57;;;;;;;2.17;1.10;;;;;;;;;;4773042;30;20078;-75
2022/09/09 07:21:24;;;;;;;1.92;1.10;;;;;;;;;;4773125;30;20056;-74
2022/09/09 07:23:51;;;;;;;3.85;1.00;;;;;;;;;;4773602;30;20043;-75
2022/09/09 07:26:22;;;;;;;3.03;0.88;;;;;;;;;;4773170;30;20066;-75
2022/09/09 07:28:48;;;;;;;3.83;1.17;;;;;;;;;;4773609;30;20058;-75
2022/09/09 07:31:16;;;;;;;2.95;1.38;;;;;;;;;;4773764;30;20135;-75
2022/09/09 07:33:43;;;;;;;3.42;1.42;;;;;;;;;;4772936;30;20043;-75
2022/09/09 07:36:22;;;;;;;3.10;1.20;;;;;;;;;;4772764;30;20051;-75
2022/09/09 07:38:51;;;;;;;3.28;1.08;;;;;;;;;;4772264;30;20044;-74
2022/09/09 07:41:19;;;;;;;3.22;0.95;;;;;;;;;;4772619;30;20050;-75
2022/09/09 07:43:47;;;;;;;2.53;1.20;;;;;;;;;;4772361;30;20058;-75
2022/09/09 07:46:14;;;;;;;6.57;1.10;;;;;;;;;;4773251;30;20070;-75
2022/09/09 07:48:50;;;;;;;8.88;1.30;;;;;;;;;;4772437;30;20130;-75
2022/09/09 07:51:18;;;;;;;2.00;1.00;;;;;;;;;;4772457;30;20055;-75
2022/09/09 07:53:45;;;;;;;2.08;1.00;;;;;;;;;;4772678;30;20083;-75
2022/09/09 07:56:12;;;;;;;2.08;0.90;;;;;;;;;;4771398;30;20069;-75
2022/09/09 07:58:39;;;;;;;1.50;0.70;;;;;;;;;;4772556;30;20047;-75
2022/09/09 08:01:16;;;;;;;2.95;1.00;;;;;;;;;;4772579;30;20057;-75
2022/09/09 08:03:44;;;;;;;4.85;0.80;;;;;;;;;;4771940;30;20098;-75
2022/09/09 08:06:12;;;;;;;3.42;0.95;;;;;;;;;;4772571;30;20079;-75
2022/09/09 08:08:38;;;;;;;2.97;0.90;;;;;;;;;;4772084;30;20469;-75
2022/09/09 08:11:15;;;;;;;1.20;0.77;;;;;;;;;;4771993;30;20051;-75
2022/09/09 08:13:42;;;;;;;2.58;1.00;;;;;;;;;;4772592;30;20050;-75
2022/09/09 08:16:10;;;;;;;2.10;0.82;;;;;;;;;;4772449;30;20044;-75
2022/09/09 08:18:37;;;;;;;2.70;0.80;;;;;;;;;;4772253;30;20055;-75
2022/09/09 08:21:14;;;;;;;2.63;1.10;;;;;;;;;;4771891;30;20050;-76
2022/09/09 08:23:41;;;;;;;2.25;0.80;;;;;;;;;;4771903;30;20126;-76
2022/09/09 08:26:14;;;;;;;1.77;1.05;;;;;;;;;;4772057;30;20040;-75
2022/09/09 08:28:41;;;;;;;1.40;0.70;;;;;;;;;;4771747;30;20040;-75
2022/09/09 08:31:09;;;;;;;1.77;0.90;;;;;;;;;;4772481;30;20083;-76
2022/09/09 08:33:37;;;;;;;1.35;0.90;;;;;;;;;;4772659;30;20100;-75
2022/09/09 08:36:03;;;;;;;1.15;0.70;;;;;;;;;;4771880;30;20088;-76
2022/09/09 08:38:29;;;;;;;1.13;0.80;;;;;;;;;;4771516;30;20381;-76
2022/09/09 08:41:00;;;;;;;2.55;0.98;;;;;;;;;;4771928;30;20069;-75
2022/09/09 08:43:28;;;;;;;1.73;0.70;;;;;;;;;;4772201;30;20055;-76
2022/09/09 08:46:01;;;;;;;2.03;0.80;;;;;;;;;;4772439;30;20156;-76
2022/09/09 08:48:38;;;;;;;1.92;0.90;;;;;;;;;;4771804;30;20071;-75
2022/09/09 08:51:08;;;;;;;1.30;0.80;;;;;;;;;;4770820;30;20059;-76
2022/09/09 08:53:51;;;;;;;2.25;0.90;;;;;;;;;;4771899;30;20055;-76
2022/09/09 08:56:20;;;;;;;3.03;1.10;;;;;;;;;;4771954;30;20075;-76
2022/09/09 08:58:48;;;;;;;4.38;1.20;;;;;;;;;;4771663;30;20051;-77
2022/09/09 09:01:27;;;;;;;1.67;0.90;;;;;;;;;;4772722;30;20122;-76
2022/09/09 09:04:01;;;;;;;1.63;0.93;;;;;;;;;;4771907;30;20047;-76
2022/09/09 09:06:39;;;;;;;2.28;0.80;;;;;;;;;;4772040;30;20051;-76
2022/09/09 09:09:14;;;;;;;2.95;0.80;;;;;;;;;;4771511;30;20468;-76
2022/09/09 09:11:42;;;;;;;4.55;1.40;;;;;;;;;;4772125;30;20056;-76
2022/09/09 09:14:16;;;;;;;1.75;0.88;;;;;;;;;;4771542;30;20047;-76
2022/09/09 09:16:49;;;;;;;1.08;0.80;;;;;;;;;;4772369;30;20050;-77
2022/09/09 09:19:16;;;;;;;3.22;0.85;;;;;;;;;;4771762;30;20075;-76
2022/09/09 09:21:51;;;;;;;2.33;1.05;;;;;;;;;;4770839;30;20459;-76
2022/09/09 09:24:24;;;;;;;2.67;0.90;;;;;;;;;;4771826;30;20052;-77
2022/09/09 09:26:51;;;;;;;3.08;1.15;;;;;;;;;;4772278;30;20039;-76
2022/09/09 09:29:19;;;;;;;2.25;1.60;;;;;;;;;;4771605;30;20040;-77
2022/09/09 09:31:54;;;;;;;2.88;1.00;;;;;;;;;;4772413;30;20047;-76
2022/09/09 09:34:20;;;;;;;2.22;1.10;;;;;;;;;;4771373;30;20126;-76
2022/09/09 09:37:04;;;;;;;1.75;1.00;;;;;;;;;;4771152;30;20071;-76
2022/09/09 09:39:31;;;;;;;1.60;0.95;;;;;;;;;;4771839;30;20120;-76
2022/09/09 09:41:57;;;;;;;4.53;1.10;;;;;;;;;;4771288;30;20039;-76
2022/09/09 09:44:25;;;;;;;2.50;0.80;;;;;;;;;;4771207;30;20055;-76
2022/09/09 09:46:51;;;;;;;2.75;1.02;;;;;;;;;;4771276;30;20501;-77
2022/09/09 09:49:18;;;;;;;3.15;0.90;;;;;;;;;;4771230;30;20048;-76
2022/09/09 09:51:44;;;;;;;2.08;1.10;;;;;;;;;;4770731;30;20056;-76
2022/09/09 09:54:13;;;;;;;3.63;0.90;;;;;;;;;;4771254;30;20055;-76
2022/09/09 09:56:40;;;;;;;2.25;0.82;;;;;;;;;;4770919;30;20577;-76
2022/09/09 09:59:06;;;;;;;2.78;1.00;;;;;;;;;;4771113;30;20043;-76
2022/09/09 10:01:33;;;;;;;4.00;1.13;;;;;;;;;;4771810;30;20051;-76
2022/09/09 10:04:01;;;;;;;2.95;1.08;;;;;;;;;;4775050;30;20035;-76
2022/09/09 10:06:35;;;;;;;2.28;0.80;;;;;;;;;;4774279;30;20048;-76
2022/09/09 10:09:02;;;;;;;3.38;0.90;;;;;;;;;;4774113;30;20036;-76
2022/09/09 10:11:40;;;;;;;3.38;0.80;;;;;;;;;;4774863;30;20063;-76
2022/09/09 10:14:06;;;;;;;5.57;1.50;;;;;;;;;;4774835;30;20052;-76
2022/09/09 10:16:32;;;;;;;2.40;1.10;;;;;;;;;;4774098;30;20130;-76
2022/09/09 10:19:15;;;;;;;1.95;0.82;;;;;;;;;;4774221;30;20043;-76
2022/09/09 10:21:55;;;;;;;1.70;0.88;;;;;;;;;;4773566;30;20079;-76
2022/09/09 10:24:33;;;;;;;1.95;0.80;;;;;;;;;;4774213;30;20070;-76
2022/09/09 10:27:20;;;;;;;4.43;0.80;;;;;;;;;;4773834;30;20129;-76
2022/09/09 10:29:50;;;;;;;4.88;0.98;;;;;;;;;;4773235;30;20130;-76
2022/09/09 10:32:34;;;;;;;1.10;0.70;;;;;;;;;;4774855;30;20122;-76
2022/09/09 10:35:03;;;;;;;1.83;1.08;;;;;;;;;;4773981;30;20550;-76
2022/09/09 10:37:48;;;;;;;3.03;0.98;;;;;;;;;;4773840;30;20059;-76
2022/09/09 10:40:14;;;;;;;1.88;0.70;;;;;;;;;;4773962;30;20077;-76
2022/09/09 10:42:41;;;;;;;3.22;0.93;;;;;;;;;;4773910;30;20561;-76
2022/09/09 10:45:07;;;;;;;1.73;0.75;;;;;;;;;;4773547;30;20056;-73
2022/09/09 10:47:33;;;;;;;2.20;1.13;;;;;;;;;;4773848;30;20108;-78
2022/09/09 10:50:17;;;;;;;1.13;0.70;;;;;;;;;;4772045;30;20051;-76
2022/09/09 10:53:02;;;;;;;2.97;1.20;;;;;;;;;;4771929;30;20096;-75
2022/09/09 10:55:38;;;;;;;3.42;0.80;;;;;;;;;;4755855;30;20071;-80
2022/09/09 10:58:07;;;;;;;4.45;1.00;;;;;;;;;;4769481;30;20051;-78
2022/09/09 11:00:39;;;;;;;2.42;0.90;;;;;;;;;;4773238;30;20040;-79
2022/09/09 11:03:07;;;;;;;4.80;1.08;;;;;;;;;;4772421;30;20073;-79
2022/09/09 11:05:45;;;;;;;4.80;1.05;;;;;;;;;;4772181;30;20051;-78
2022/09/09 11:08:15;;;;;;;2.55;0.90;;;;;;;;;;4763790;30;20131;-81
2022/09/09 11:10:41;;;;;;;2.25;0.80;;;;;;;;;;4773264;30;20055;-79
2022/09/09 11:13:18;;;;;;;2.20;0.93;;;;;;;;;;4772458;30;20059;-79
2022/09/09 11:15:53;;;;;;;2.88;0.70;;;;;;;;;;4771514;30;20047;-80
2022/09/09 11:18:23;;;;;;;1.92;1.00;;;;;;;;;;4772820;30;20506;-82
2022/09/09 11:20:51;;;;;;;1.52;0.80;;;;;;;;;;4772535;30;20052;-81
2022/09/09 11:23:27;;;;;;;3.33;0.70;;;;;;;;;;4772716;30;20055;-79
2022/09/09 11:25:56;;;;;;;2.42;0.90;;;;;;;;;;4764260;30;20076;-79
2022/09/09 11:28:41;;;;;;;4.22;1.10;;;;;;;;;;4785066;29;20059;-79
2022/09/09 11:31:33;;;;;;;3.40;0.70;;;;;;;;;;4771882;30;20109;-80
2022/09/09 11:34:11;;;;;;;1.85;0.70;;;;;;;;;;4771549;30;20084;-79
2022/09/09 11:36:52;;;;;;;3.97;0.60;;;;;;;;;;4772155;30;20047;-79
2022/09/09 11:39:29;;;;;;;4.97;1.13;;;;;;;;;;4772630;30;20136;-79
2022/09/09 11:42:06;;;;;;;5.10;1.05;;;;;;;;;;4769533;30;20039;-81
2022/09/09 11:44:33;;;;;;;3.65;0.80;;;;;;;;;;4772305;30;20063;-80
2022/09/09 11:46:59;;;;;;;3.35;1.00;;;;;;;;;;4771180;30;20098;-79
2022/09/09 11:49:41;;;;;;;2.05;0.75;;;;;;;;;;4772618;30;20090;-79
2022/09/09 11:52:14;;;;;;;3.75;0.90;;;;;;;;;;4772861;30;20116;-81
2022/09/09 11:54:48;;;;;;;3.40;0.73;;;;;;;;;;4780609;30;20052;-81
2022/09/09 11:57:26;;;;;;;2.75;0.77;;;;;;;;;;4770763;30;20813;-80
2022/09/09 11:59:52;;;;;;;2.58;0.70;;;;;;;;;;4754678;30;20127;-80
2022/09/09 12:02:23;;;;;;;3.30;0.80;;;;;;;;;;4766558;30;20134;-80
2022/09/09 12:04:55;;;;;;;1.52;0.80;;;;;;;;;;4770593;30;20127;-80
2022/09/09 12:07:27;;;;;;;0.70;0.43;;;;;;;;;;4772081;30;20138;-80
2022/09/09 12:10:06;;;;;;;3.13;0.68;;;;;;;;;;4769092;30;20539;-78
2022/09/09 12:12:36;;;;;;;1.13;0.40;;;;;;;;;;4770632;30;20531;-81
2022/09/09 12:15:08;;;;;;;1.23;0.50;;;;;;;;;;4771242;30;20039;-81
2022/09/09 12:17:42;;;;;;;1.85;0.43;;;;;;;;;;4770935;30;20052;-81
2022/09/09 12:20:14;;;;;;;1.30;0.40;;;;;;;;;;4771744;30;20052;-80
2022/09/09 12:22:59;;;;;;;1.88;0.40;;;;;;;;;;4772413;30;20055;-79
2022/09/09 12:25:43;;;;;;;1.33;0.40;;;;;;;;;;4771982;30;20044;-80
2022/09/09 12:28:12;;;;;;;0.45;0.30;;;;;;;;;;4771775;30;20096;-80
2022/09/09 12:30:41;;;;;;;0.60;0.35;;;;;;;;;;4772320;30;20051;-80
2022/09/09 12:33:12;;;;;;;0.73;0.35;;;;;;;;;;4772054;30;20052;-81
2022/09/09 12:35:39;;;;;;;0.45;0.32;;;;;;;;;;4771376;30;20126;-80
2022/09/09 12:38:09;;;;;;;0.28;0.20;;;;;;;;;;4771443;30;20083;-81
2022/09/09 12:40:35;;;;;;;0.40;0.20;;;;;;;;;;4771807;30;20051;-81
2022/09/09 12:43:21;;;;;;;0.30;0.30;;;;;;;;;;4772215;30;20057;-80
2022/09/09 12:45:50;;;;;;;0.30;0.30;;;;;;;;;;4771330;30;20059;-81
2022/09/09 12:48:17;;;;;;;3.80;0.30;;;;;;;;;;4771388;30;20040;-81
2022/09/09 12:50:51;;;;;;;0.20;0.20;;;;;;;;;;4771795;30;20056;-80
2022/09/09 12:53:26;;;;;;;1.75;0.30;;;;;;;;;;4770881;30;20048;-81
2022/09/09 12:55:57;;;;;;;0.17;0.17;;;;;;;;;;4770770;30;20576;-80
2022/09/09 12:58:24;;;;;;;0.28;0.20;;;;;;;;;;4771751;30;20480;-80
2022/09/09 13:00:56;;;;;;;2.83;0.25;;;;;;;;;;4771124;30;20136;-80
2022/09/09 13:03:23;;;;;;;0.40;0.40;;;;;;;;;;4771491;30;20035;-80
2022/09/09 13:05:49;;;;;;;1.55;0.40;;;;;;;;;;4770389;30;20058;-81
2022/09/09 13:08:19;;;;;;;0.95;0.57;;;;;;;;;;4770076;30;20050;-81
2022/09/09 13:11:02;;;;;;;0.57;0.40;;;;;;;;;;4770568;30;20091;-81
2022/09/09 13:13:32;;;;;;;1.10;0.63;;;;;;;;;;4768031;30;20183;-81
2022/09/09 13:15:59;;;;;;;1.13;0.50;;;;;;;;;;4771478;30;20048;-80
2022/09/09 13:18:30;;;;;;;1.48;0.60;;;;;;;;;;4770472;30;20393;-80
2022/09/09 13:20:59;;;;;;;1.73;0.82;;;;;;;;;;4771158;30;20512;-80
2022/09/09 13:23:30;;;;;;;1.02;0.70;;;;;;;;;;4770743;30;20052;-80
2022/09/09 13:25:58;;;;;;;1.30;0.70;;;;;;;;;;4770876;30;20052;-80
2022/09/09 13:28:26;;;;;;;1.70;0.68;;;;;;;;;;4771448;30;20043;-80
2022/09/09 13:31:02;;;;;;;0.70;0.40;;;;;;;;;;4770954;30;20061;-81
2022/09/09 13:33:33;;;;;;;0.68;0.50;;;;;;;;;;4769419;30;20048;-82
2022/09/09 13:35:59;;;;;;;;;;;;;;;;;;4771295;30;20068;-80
2022/09/09 13:38:26;;;;;;;0.95;0.60;;;;;;;;;;4773696;30;20018;-81
2022/09/09 13:40:56;;;;;;;0.75;0.40;;;;;;;;;;4774440;30;20053;-81
2022/09/09 13:43:23;;;;;;;1.20;0.40;;;;;;;;;;4773253;30;20047;-78
2022/09/09 13:45:56;;;;;;;1.35;0.63;;;;;;;;;;4775681;30;20063;-80
2022/09/09 13:48:22;;;;;;;1.42;0.65;;;;;;;;;;4773798;30;20126;-81
2022/09/09 13:50:56;;;;;;;1.75;0.68;;;;;;;;;;4774369;30;20083;-80
2022/09/09 13:53:23;;;;;;;1.92;0.82;;;;;;;;;;4774727;30;20059;-79
2022/09/09 13:55:49;;;;;;;1.15;0.60;;;;;;;;;;4774187;30;20114;-77
2022/09/09 13:58:18;;;;;;;1.83;0.50;;;;;;;;;;4764032;30;20051;-76
2022/09/09 14:00:45;;;;;;;2.63;0.60;;;;;;;;;;4779311;29;20054;-80
2022/09/09 14:03:11;;;;;;;1.98;0.80;;;;;;;;;;4773145;30;20512;-81
2022/09/09 14:05:37;;;;;;;2.03;0.70;;;;;;;;;;4773878;30;20071;-79
2022/09/09 14:08:07;;;;;;;4.05;0.65;;;;;;;;;;4771761;30;20547;-76
2022/09/09 14:10:36;;;;;;;3.97;0.80;;;;;;;;;;4754883;30;20493;-75
2022/09/09 14:13:03;;;;;;;1.67;0.70;;;;;;;;;;4772899;30;20082;-76
2022/09/09 14:15:29;;;;;;;1.35;0.60;;;;;;;;;;4773468;30;20071;-75
2022/09/09 14:17:55;;;;;;;3.35;0.70;;;;;;;;;;4774285;30;20256;-76
2022/09/09 14:20:22;;;;;;;5.95;1.00;;;;;;;;;;4774197;30;20052;-76
2022/09/09 14:22:48;;;;;;;2.72;0.90;;;;;;;;;;4774272;30;20126;-76
2022/09/09 14:25:14;;;;;;;2.78;0.70;;;;;;;;;;4774437;30;20047;-76
2022/09/09 14:27:42;;;;;;;1.92;1.10;;;;;;;;;;4788156;30;20036;-76
2022/09/09 14:30:09;;;;;;;5.82;1.10;;;;;;;;;;4774386;30;20059;-76
2022/09/09 14:32:35;;;;;;;3.47;0.75;;;;;;;;;;4774497;30;20051;-76
2022/09/09 14:35:01;;;;;;;4.82;1.08;;;;;;;;;;4774576;30;20113;-76
2022/09/09 14:37:27;;;;;;;2.85;0.90;;;;;;;;;;4774286;30;20058;-76
2022/09/09 14:39:54;;;;;;;3.92;0.90;;;;;;;;;;4788029;30;20052;-76
2022/09/09 14:42:21;;;;;;;5.43;0.95;;;;;;;;;;4774562;30;20048;-75
2022/09/09 14:44:47;;;;;;;4.45;0.90;;;;;;;;;;4773773;30;20102;-76
2022/09/09 14:47:13;;;;;;;1.58;0.75;;;;;;;;;;4773617;30;20373;-75
2022/09/09 14:49:40;;;;;;;2.10;0.90;;;;;;;;;;4773712;30;20553;-75
2022/09/09 14:52:06;;;;;;;2.05;0.73;;;;;;;;;;4774022;30;20055;-76
2022/09/09 14:54:32;;;;;;;2.35;1.10;;;;;;;;;;4773779;30;20039;-76
2022/09/09 14:56:59;;;;;;;5.53;1.20;;;;;;;;;;4773431;30;20488;-76
2022/09/09 14:59:25;;;;;;;1.30;0.70;;;;;;;;;;4773666;30;20069;-75
2022/09/09 15:01:51;;;;;;;1.77;0.88;;;;;;;;;;4773653;30;20055;-76
2022/09/09 15:04:18;;;;;;;2.67;1.02;;;;;;;;;;4773679;30;20044;-77